Time;durP1;ratioP1;P1;durP2;ratioP2;P2;SDS_P1;SDS_P2;PMS_P1;PMS_P2;Temp;Humidity;BMP_temperature;BMP_pressure;BME280_temperature;BME280_humidity;BME280_pressure;Samples;Min_cycle;Max_cycle;Signal;HPM_P1;HPM_P2
2022/04/10 00:01:00;;;;;;;6.40;2.50;;;;;;;11.25;48.54;99371.59;4883081;29;20068;-83
2022/04/10 00:03:26;;;;;;;8.20;2.60;;;;;;;11.26;48.17;99375.97;4865792;29;20045;-84
2022/04/10 00:05:52;;;;;;;4.25;2.30;;;;;;;11.22;48.85;99375.38;4866205;29;20052;-83
2022/04/10 00:08:19;;;;;;;5.10;2.22;;;;;;;11.25;48.65;99377.81;4882556;29;20060;-83
2022/04/10 00:10:45;;;;;;;4.30;2.20;;;;;;;11.22;48.75;99367.34;4865855;29;20464;-83
2022/04/10 00:13:11;;;;;;;4.07;2.20;;;;;;;11.22;48.89;99375.38;4882383;29;20052;-84
2022/04/10 00:15:38;;;;;;;8.93;2.88;;;;;;;11.19;48.78;99368.44;4882430;29;20041;-83
2022/04/10 00:18:04;;;;;;;4.13;2.42;;;;;;;11.16;48.75;99365.16;4865919;29;20052;-84
2022/04/10 00:20:30;;;;;;;2.78;2.30;;;;;;;11.12;48.91;99363.72;4881038;29;20543;-82
2022/04/10 00:22:55;;;;;;;4.15;2.47;;;;;;;11.07;49.02;99363.25;4882163;29;20064;-84
2022/04/10 00:25:21;;;;;;;2.67;2.33;;;;;;;11.14;49.21;99372.47;4865485;29;20074;-83
2022/04/10 00:27:48;;;;;;;3.17;2.15;;;;;;;11.07;49.55;99372.13;4865257;29;20045;-81
2022/04/10 00:30:16;;;;;;;2.80;2.50;;;;;;;11.02;49.45;99369.00;4880933;29;20413;-83
2022/04/10 00:32:43;;;;;;;5.80;2.35;;;;;;;10.99;49.36;99363.88;4879143;29;20045;-85
2022/04/10 00:35:10;;;;;;;3.38;2.35;;;;;;;10.97;49.57;99364.97;4865542;29;20057;-85
2022/04/10 00:37:37;;;;;;;3.67;2.30;;;;;;;10.96;49.73;99364.13;4865389;29;20390;-85
2022/04/10 00:40:04;;;;;;;2.95;2.20;;;;;;;10.93;49.92;99364.38;4865280;29;20055;-85
2022/04/10 00:42:38;;;;;;;3.03;2.20;;;;;;;10.86;50.03;99349.78;4865391;29;20501;-83
2022/04/10 00:45:07;;;;;;;5.32;2.25;;;;;;;10.86;50.30;99350.63;4865545;29;20485;-83
2022/04/10 00:47:33;;;;;;;7.75;2.20;;;;;;;10.88;50.23;99355.88;4834564;29;20053;-85
2022/04/10 00:50:03;;;;;;;7.30;2.50;;;;;;;10.86;50.01;99364.00;4849508;29;20045;-86
2022/04/10 00:52:29;;;;;;;5.40;2.40;;;;;;;10.84;50.11;99365.13;4865025;29;20474;-84
2022/04/10 00:54:56;;;;;;;3.83;2.40;;;;;;;10.87;50.13;99371.06;4849802;29;20045;-83
2022/04/10 00:57:23;;;;;;;4.05;2.25;;;;;;;10.86;50.33;99373.84;4850070;29;20097;-82
2022/04/10 00:59:49;;;;;;;9.43;2.20;;;;;;;10.85;50.56;99382.84;4881982;29;20078;-83
2022/04/10 01:02:15;;;;;;;2.58;2.10;;;;;;;10.82;50.48;99378.59;4864732;29;20048;-84
2022/04/10 01:04:43;;;;;;;3.83;2.60;;;;;;;10.80;50.65;99379.72;4849972;29;20105;-83
2022/04/10 01:07:13;;;;;;;6.50;2.60;;;;;;;10.82;50.93;99383.94;4834156;29;20041;-82
2022/04/10 01:09:42;;;;;;;2.97;2.67;;;;;;;10.84;50.79;99390.03;4864532;29;20053;-86
2022/04/10 01:12:09;;;;;;;4.50;2.40;;;;;;;10.76;50.57;99378.28;4865799;29;20053;-84
2022/04/10 01:14:37;;;;;;;2.65;2.33;;;;;;;10.80;51.09;99380.56;4881627;29;20069;-84
2022/04/10 01:17:07;;;;;;;3.53;2.88;;;;;;;10.76;51.30;99381.78;4864844;29;20059;-84
2022/04/10 01:19:34;;;;;;;6.70;3.20;;;;;;;10.76;51.27;99389.81;4880599;29;20061;-85
2022/04/10 01:22:05;;;;;;;6.57;2.72;;;;;;;10.75;52.16;99392.59;4849121;29;20045;-85
2022/04/10 01:24:39;;;;;;;9.95;2.88;;;;;;;10.65;52.00;99387.13;4849472;29;20090;-84
2022/04/10 01:27:09;;;;;;;7.80;3.05;;;;;;;10.64;52.19;99386.28;4880131;29;20050;-85
2022/04/10 01:29:35;;;;;;;4.90;2.72;;;;;;;10.65;52.36;99392.50;4849210;29;20101;-85
2022/04/10 01:32:02;;;;;;;5.05;2.67;;;;;;;10.62;52.35;99393.56;4880182;29;20084;-84
2022/04/10 01:34:29;;;;;;;8.77;2.80;;;;;;;10.60;52.82;99384.81;4864433;29;20056;-84
2022/04/10 01:36:56;;;;;;;4.75;2.35;;;;;;;10.56;52.74;99382.50;4876826;29;20100;-81
2022/04/10 01:39:22;;;;;;;5.75;2.60;;;;;;;10.51;52.80;99390.06;4857110;29;20045;-83
2022/04/10 01:41:51;;;;;;;2.97;2.30;;;;;;;10.50;52.97;99380.34;4845860;29;20413;-85
2022/04/10 01:44:17;;;;;;;5.97;2.78;;;;;;;10.54;53.20;99393.34;4846239;29;20053;-85
2022/04/10 01:46:43;;;;;;;6.43;3.05;;;;;;;10.55;53.21;99391.50;4862450;29;20101;-85
2022/04/10 01:49:11;;;;;;;30.60;4.25;;;;;;;10.48;53.72;99390.28;4830439;29;20148;-86
2022/04/10 01:51:37;;;;;;;4.75;2.55;;;;;;;10.47;53.90;99401.97;4861162;29;20052;-85
2022/04/10 01:54:03;;;;;;;8.48;2.67;;;;;;;10.44;53.82;99403.03;4846428;29;20049;-83
2022/04/10 01:56:29;;;;;;;3.97;2.20;;;;;;;10.48;53.81;99412.50;4849626;29;20132;-85
2022/04/10 01:58:55;;;;;;;5.30;2.63;;;;;;;10.43;54.01;99409.38;4834382;29;20045;-84
2022/04/10 02:01:23;;;;;;;11.15;2.90;;;;;;;10.48;54.34;99406.31;4847164;29;20049;-85
2022/04/10 02:03:51;;;;;;;3.45;2.60;;;;;;;10.49;54.17;99413.34;4846232;29;20063;-84
2022/04/10 02:06:18;;;;;;;13.18;2.45;;;;;;;10.48;54.34;99417.84;4832813;29;20042;-85
2022/04/10 02:08:48;;;;;;;7.30;2.78;;;;;;;10.38;54.45;99406.19;4830365;29;20557;-85
2022/04/10 02:11:17;;;;;;;13.00;2.92;;;;;;;10.38;54.07;99412.41;4830492;29;20045;-87
2022/04/10 02:13:45;;;;;;;7.05;2.50;;;;;;;10.47;54.31;99423.34;4845490;29;20152;-85
2022/04/10 02:16:14;;;;;;;38.85;3.95;;;;;;;10.44;54.50;99417.25;4845319;29;20053;-86
2022/04/10 02:18:40;;;;;;;4.75;2.63;;;;;;;10.49;55.00;99418.69;4830571;29;20561;-85
2022/04/10 02:21:07;;;;;;;5.78;2.70;;;;;;;10.54;54.80;99427.22;4830549;29;20045;-85
2022/04/10 02:23:34;;;;;;;10.27;2.78;;;;;;;10.48;54.74;99419.69;4845685;29;20490;-84
2022/04/10 02:26:00;;;;;;;8.60;2.67;;;;;;;10.49;54.91;99421.38;4862167;29;20054;-88
2022/04/10 02:28:26;;;;;;;7.28;3.20;;;;;;;10.52;54.85;99416.66;4830420;29;20185;-86
2022/04/10 02:30:52;;;;;;;3.28;2.22;;;;;;;10.52;55.26;99429.16;4845344;29;20128;-86
2022/04/10 02:33:19;;;;;;;6.72;2.70;;;;;;;10.47;55.11;99415.31;4845720;29;20522;-87
2022/04/10 02:35:46;;;;;;;5.20;2.50;;;;;;;10.45;55.24;99410.06;4845048;29;20049;-85
2022/04/10 02:38:11;;;;;;;5.40;2.85;;;;;;;10.47;55.39;99416.16;4861528;29;20112;-85
2022/04/10 02:40:37;;;;;;;4.78;2.78;;;;;;;10.50;55.11;99426.63;4829717;29;20042;-85
2022/04/10 02:43:03;;;;;;;35.28;4.28;;;;;;;10.42;55.20;99413.88;4845072;29;20056;-84
2022/04/10 02:45:30;;;;;;;5.75;3.20;;;;;;;10.50;55.34;99423.09;4844740;29;20045;-86
2022/04/10 02:47:57;;;;;;;8.05;2.85;;;;;;;10.54;55.53;99417.38;4851895;29;20044;-85
2022/04/10 02:50:24;;;;;;;20.85;3.63;;;;;;;10.61;55.24;99423.09;4847778;29;20084;-86
2022/04/10 02:52:51;;;;;;;5.43;2.70;;;;;;;10.71;55.07;99429.41;4832834;29;20493;-85
2022/04/10 02:55:18;;;;;;;6.70;2.80;;;;;;;10.78;54.91;99427.09;4848165;29;20041;-83
2022/04/10 02:58:03;;;;;;;16.55;4.00;;;;;;;10.85;54.55;99426.50;4853344;29;20105;-84
2022/04/10 03:00:48;;;;;;;19.95;3.33;;;;;;;10.85;54.97;99431.84;4866964;29;20056;-86
2022/04/10 03:03:32;;;;;;;31.17;4.25;;;;;;;10.81;54.95;99429.53;4881493;29;20105;-82
2022/04/10 03:06:18;;;;;;;6.05;2.67;;;;;;;10.85;54.95;99426.50;4853008;29;20468;-85
2022/04/10 03:09:03;;;;;;;8.05;3.03;;;;;;;10.77;55.14;99412.88;4865434;29;20073;-85
2022/04/10 03:11:49;;;;;;;8.48;3.05;;;;;;;10.83;55.22;99433.81;4866524;29;20089;-84
2022/04/10 03:14:36;;;;;;;5.00;2.75;;;;;;;10.80;55.57;99428.69;4870220;29;20079;-82
2022/04/10 03:17:21;;;;;;;8.40;2.70;;;;;;;10.85;55.49;99426.50;4859172;29;20040;-82
2022/04/10 03:20:06;;;;;;;8.32;2.92;;;;;;;10.81;55.18;99435.72;4855264;29;20567;-86
2022/04/10 03:22:51;;;;;;;5.18;2.97;;;;;;;10.88;55.02;99439.63;4852812;29;20048;-87
2022/04/10 03:25:36;;;;;;;8.98;3.13;;;;;;;10.94;54.97;99447.16;4856469;29;20077;-86
2022/04/10 03:28:21;;;;;;;6.93;3.00;;;;;;;11.01;55.05;99452.00;4857525;29;20084;-84
2022/04/10 03:31:05;;;;;;;30.13;3.50;;;;;;;11.03;54.98;99439.38;4865066;29;20052;-82
2022/04/10 03:33:50;;;;;;;29.73;3.22;;;;;;;10.98;54.73;99449.56;4867179;29;20059;-82
2022/04/10 03:36:35;;;;;;;21.60;4.57;;;;;;;11.02;54.54;99443.00;4859762;29;20416;-84
2022/04/10 03:39:19;;;;;;;4.40;2.80;;;;;;;11.04;54.28;99441.06;4871647;29;20063;-83
2022/04/10 03:42:04;;;;;;;6.90;2.92;;;;;;;11.08;54.13;99448.72;4854248;29;20044;-82
2022/04/10 03:44:51;;;;;;;3.92;2.80;;;;;;;11.04;53.92;99431.22;4853872;29;20092;-84
2022/04/10 03:47:36;;;;;;;4.82;2.65;;;;;;;11.09;53.94;99433.50;4869653;29;20051;-84
2022/04/10 03:50:21;;;;;;;4.50;2.95;;;;;;;11.10;53.82;99425.38;4866741;29;20465;-86
2022/04/10 03:53:06;;;;;;;21.67;3.80;;;;;;;11.12;53.75;99419.91;4854568;29;20060;-84
2022/04/10 03:55:51;;;;;;;6.55;2.78;;;;;;;11.16;53.68;99435.56;4867291;29;20425;-86
2022/04/10 03:58:37;;;;;;;6.95;3.03;;;;;;;11.17;53.59;99426.59;4852360;29;20047;-84
2022/04/10 04:01:21;;;;;;;4.18;2.50;;;;;;;11.21;53.25;99429.00;4851863;29;20131;-83
2022/04/10 04:04:06;;;;;;;6.85;2.90;;;;;;;11.31;53.12;99428.13;4865273;29;20531;-82
2022/04/10 04:06:51;;;;;;;3.15;2.42;;;;;;;11.36;52.99;99435.78;4869840;29;20052;-83
2022/04/10 04:09:37;;;;;;;3.65;1.95;;;;;;;11.47;56.87;99427.75;4853816;29;20077;-88
2022/04/10 04:12:22;;;;;;;6.63;2.60;;;;;;;11.64;55.42;99412.94;4855655;29;20116;-88
2022/04/10 04:15:07;;;;;;;5.43;2.80;;;;;;;11.99;55.15;99419.88;4863655;29;20110;-89
2022/04/10 04:17:54;;;;;;;5.25;2.75;;;;;;;12.31;53.29;99417.97;4854209;29;20141;-82
2022/04/10 04:20:39;;;;;;;19.00;3.38;;;;;;;12.33;51.68;99426.72;4872071;29;20056;-84
2022/04/10 04:23:24;;;;;;;4.85;2.88;;;;;;;12.33;51.55;99420.50;4864984;29;20178;-81
2022/04/10 04:26:11;;;;;;;9.18;3.17;;;;;;;12.49;51.31;99426.28;4855505;29;20067;-81
2022/04/10 04:28:57;;;;;;;5.82;3.00;;;;;;;12.49;50.37;99434.31;4855744;29;20064;-82
2022/04/10 04:31:42;;;;;;;9.63;3.03;;;;;;;12.46;50.76;99433.72;4867416;29;20108;-81
2022/04/10 04:34:27;;;;;;;11.73;3.08;;;;;;;12.54;50.33;99428.53;4868392;29;20409;-81
2022/04/10 04:37:13;;;;;;;9.70;2.97;;;;;;;12.59;50.05;99423.63;4871043;29;20055;-81
2022/04/10 04:39:58;;;;;;;4.53;2.80;;;;;;;12.64;50.07;99413.38;4882052;29;20059;-82
2022/04/10 04:42:42;;;;;;;5.70;2.90;;;;;;;12.79;49.40;99417.38;4868167;29;20063;-81
2022/04/10 04:45:28;;;;;;;8.00;3.10;;;;;;;12.84;49.00;99425.00;4867833;29;20056;-85
2022/04/10 04:48:27;;;;;;;;;;;;;;;13.06;52.55;99423.97;4881762;29;20112;-88
2022/04/10 04:51:15;;;;;;;5.03;2.90;;;;;;;13.23;50.59;99417.06;4865582;29;20302;-91
2022/04/10 04:54:02;;;;;;;7.55;2.92;;;;;;;13.18;49.35;99416.66;4858395;29;20081;-86
2022/04/10 04:56:46;;;;;;;3.72;2.97;;;;;;;13.00;49.62;99430.72;4872447;29;20159;-84
2022/04/10 04:59:34;;;;;;;4.65;2.75;;;;;;;13.08;49.25;99427.34;4870112;29;20052;-81
2022/04/10 05:02:20;;;;;;;4.63;3.13;;;;;;;13.20;49.30;99415.53;4861880;29;20178;-79
2022/04/10 05:05:06;;;;;;;5.45;2.85;;;;;;;13.40;50.06;99429.03;4849232;29;20052;-80
2022/04/10 05:07:51;;;;;;;5.95;2.80;;;;;;;13.55;48.46;99430.31;4849221;29;20243;-80
2022/04/10 05:10:36;;;;;;;6.38;2.92;;;;;;;13.52;48.00;99427.91;4863711;29;20053;-81
2022/04/10 05:13:23;;;;;;;23.65;3.67;;;;;;;13.58;48.31;99424.69;4849472;29;20502;-83
2022/04/10 05:16:08;;;;;;;27.90;5.15;;;;;;;13.51;47.28;99418.16;4848854;29;20105;-84
2022/04/10 05:18:55;;;;;;;18.80;3.90;;;;;;;13.42;47.29;99422.50;4861754;29;20076;-88
2022/04/10 05:21:45;;;;;;;13.70;3.38;;;;;;;13.42;47.35;99425.19;4871179;29;20503;-86
2022/04/10 05:24:30;;;;;;;3.65;2.70;;;;;;;13.29;47.61;99430.00;4873016;29;20461;-83
2022/04/10 05:27:16;;;;;;;4.20;2.83;;;;;;;13.24;47.73;99422.34;4872986;29;20055;-84
2022/04/10 05:30:02;;;;;;;6.20;3.13;;;;;;;13.23;47.59;99414.38;4885078;29;20134;-82
2022/04/10 05:32:46;;;;;;;6.75;3.30;;;;;;;13.28;47.95;99426.47;4885531;29;20516;-80
2022/04/10 05:35:33;;;;;;;6.40;3.40;;;;;;;13.32;47.78;99430.56;4872421;29;20062;-82
2022/04/10 05:38:18;;;;;;;5.43;3.40;;;;;;;13.27;47.88;99430.09;4898773;29;20063;-82
2022/04/10 05:41:03;;;;;;;45.38;5.07;;;;;;;13.29;48.11;99430.84;4885005;29;20047;-80
2022/04/10 05:43:52;;;;;;;9.50;3.97;;;;;;;13.33;48.02;99437.63;4867079;29;20073;-84
2022/04/10 05:46:38;;;;;;;30.88;4.38;;;;;;;13.34;47.85;99441.16;4864291;29;20083;-82
2022/04/10 05:49:23;;;;;;;8.95;3.70;;;;;;;13.40;48.18;99432.56;4871903;29;20144;-79
2022/04/10 05:52:08;;;;;;;10.88;4.03;;;;;;;13.45;48.06;99432.13;4852907;29;20208;-82
2022/04/10 05:55:00;;;;;;;7.18;3.15;;;;;;;13.42;47.74;99427.03;4853961;29;20060;-81
2022/04/10 05:57:47;;;;;;;15.60;3.95;;;;;;;13.46;47.70;99447.25;4866316;29;20056;-84
2022/04/10 06:00:31;;;;;;;5.45;3.50;;;;;;;13.56;47.43;99430.16;4866248;29;20473;-83
2022/04/10 06:03:26;;;;;;;4.07;3.30;;;;;;;13.76;47.10;99439.09;4866373;29;20480;-85
2022/04/10 06:06:12;;;;;;;7.00;3.05;;;;;;;13.84;46.35;99430.31;4853297;29;20056;-82
2022/04/10 06:09:03;;;;;;;7.13;3.30;;;;;;;13.87;46.00;99430.03;4866348;29;20059;-85
2022/04/10 06:11:48;;;;;;;5.30;3.10;;;;;;;14.01;46.33;99421.56;4853458;29;20108;-86
2022/04/10 06:14:33;;;;;;;5.68;3.25;;;;;;;14.20;46.22;99439.50;4866637;29;20088;-85
2022/04/10 06:17:00;;;;;;;4.28;2.83;;;;;;;14.33;45.26;99420.41;4863284;29;20045;-85
2022/04/10 06:19:28;;;;;;;9.25;3.00;;;;;;;14.55;45.22;99430.84;4863506;29;20113;-85
2022/04/10 06:21:55;;;;;;;4.80;3.00;;;;;;;14.63;44.77;99437.31;4831954;29;20143;-83
2022/04/10 06:24:21;;;;;;;18.70;2.83;;;;;;;14.74;44.80;99440.69;4862891;29;20128;-84
2022/04/10 06:26:51;;;;;;;12.57;3.60;;;;;;;14.90;46.74;99429.28;4832282;29;20108;-84
2022/04/10 06:29:18;;;;;;;4.55;3.13;;;;;;;15.08;45.82;99437.41;4877346;29;20111;-84
2022/04/10 06:31:51;;;;;;;4.85;3.00;;;;;;;15.25;44.32;99441.16;4863156;29;20049;-82
2022/04/10 06:34:19;;;;;;;3.55;2.70;;;;;;;15.38;44.10;99440.78;4847149;29;20075;-83
2022/04/10 06:36:46;;;;;;;3.40;2.97;;;;;;;15.47;42.77;99443.44;4862104;29;20056;-83
2022/04/10 06:39:18;;;;;;;5.22;2.70;;;;;;;15.44;42.59;99427.56;4863071;29;20049;-85
2022/04/10 06:41:46;;;;;;;5.80;3.03;;;;;;;15.55;42.49;99440.00;4863088;29;20559;-84
2022/04/10 06:44:22;;;;;;;4.45;2.72;;;;;;;15.58;42.44;99442.38;4864119;29;20045;-84
2022/04/10 06:47:05;;;;;;;5.32;2.83;;;;;;;15.72;42.37;99451.81;4848968;29;20509;-84
2022/04/10 06:49:33;;;;;;;15.63;3.40;;;;;;;15.81;42.32;99450.91;4862899;29;20048;-84
2022/04/10 06:52:01;;;;;;;57.78;5.50;;;;;;;15.68;41.83;99445.91;4861989;29;20500;-85
2022/04/10 06:54:33;;;;;;;26.52;4.05;;;;;;;15.69;42.39;99458.38;4847383;29;20084;-86
2022/04/10 06:57:00;;;;;;;3.90;3.08;;;;;;;15.64;42.21;99460.63;4847188;29;20037;-86
2022/04/10 06:59:26;;;;;;;6.18;2.67;;;;;;;15.55;42.13;99451.59;4847434;29;20049;-85
2022/04/10 07:01:52;;;;;;;11.27;3.35;;;;;;;15.68;42.27;99451.28;4863139;29;20076;-91
2022/04/10 07:04:19;;;;;;;7.72;2.90;;;;;;;15.89;42.10;99442.03;4865706;29;20394;-89
2022/04/10 07:06:46;;;;;;;6.47;2.80;;;;;;;15.88;41.63;99437.66;4861882;29;20076;-84
2022/04/10 07:09:14;;;;;;;5.20;2.95;;;;;;;16.02;41.28;99431.69;4847461;29;20056;-80
2022/04/10 07:11:41;;;;;;;7.25;3.08;;;;;;;16.31;41.68;99435.97;4847063;29;20108;-87
2022/04/10 07:14:17;;;;;;;7.70;3.17;;;;;;;16.39;41.39;99433.34;4861905;29;20049;-83
2022/04/10 07:16:42;;;;;;;10.63;3.13;;;;;;;16.45;41.08;99441.66;4862186;29;20117;-82
2022/04/10 07:19:08;;;;;;;9.70;3.20;;;;;;;16.47;41.00;99436.97;4877914;29;20131;-82
2022/04/10 07:24:20;;;;;;;23.60;4.07;;;;;;;16.77;40.05;99433.94;4865732;29;20049;-82
2022/04/10 07:26:54;;;;;;;10.70;4.40;;;;;;;16.83;39.87;99430.63;4863445;29;20052;-87
2022/04/10 07:29:24;;;;;;;31.23;3.90;;;;;;;16.87;39.42;99423.88;4876758;29;20144;-81
2022/04/10 07:31:50;;;;;;;34.88;4.07;;;;;;;17.03;38.71;99426.66;4844086;29;20060;-85
2022/04/10 07:34:17;;;;;;;27.70;4.78;;;;;;;17.19;38.90;99425.91;4829088;29;20045;-87
2022/04/10 07:37:06;;;;;;;29.67;4.30;;;;;;;17.48;38.88;99425.47;4842936;29;20045;-90
2022/04/10 07:39:46;;;;;;;14.15;3.78;;;;;;;17.60;37.92;99424.16;4843608;29;20041;-88
2022/04/10 07:42:21;;;;;;;16.55;5.15;;;;;;;17.75;38.09;99426.19;4853159;29;20405;-84
2022/04/10 07:44:47;;;;;;;24.42;5.30;;;;;;;17.86;38.21;99424.03;4830027;29;20053;-81
2022/04/10 07:47:25;;;;;;;19.30;4.93;;;;;;;17.80;37.99;99423.88;4849075;29;20517;-82
2022/04/10 07:49:53;;;;;;;16.20;5.40;;;;;;;17.83;37.73;99424.41;4838186;29;20066;-83
2022/04/10 07:52:21;;;;;;;20.70;6.47;;;;;;;17.78;37.74;99431.31;4877907;29;20131;-82
2022/04/10 07:54:55;;;;;;;26.77;6.20;;;;;;;17.86;37.20;99428.59;4860817;29;20045;-84
2022/04/10 07:57:23;;;;;;;19.67;5.93;;;;;;;17.95;36.89;99425.75;4863140;29;20037;-82
2022/04/10 07:59:49;;;;;;;21.38;6.38;;;;;;;18.08;36.81;99430.66;4877395;29;20045;-83
2022/04/10 08:02:29;;;;;;;17.13;5.85;;;;;;;18.23;36.64;99440.81;4874801;29;20089;-83
2022/04/10 08:04:55;;;;;;;16.35;5.88;;;;;;;18.30;36.17;99437.25;4855790;29;20493;-83
2022/04/10 08:07:50;;;;;;;26.13;6.97;;;;;;;18.43;36.28;99431.34;4855387;29;20525;-82
2022/04/10 08:10:16;;;;;;;13.98;5.88;;;;;;;18.56;35.67;99437.03;4876523;29;20112;-82
2022/04/10 08:12:43;;;;;;;17.52;6.90;;;;;;;18.69;35.92;99437.38;4859033;29;20052;-82
2022/04/10 08:15:10;;;;;;;19.95;6.82;;;;;;;18.82;36.07;99425.19;4842580;29;20045;-82
2022/04/10 08:17:36;;;;;;;21.33;6.80;;;;;;;18.98;35.79;99435.97;4865317;29;20047;-82
2022/04/10 08:20:04;;;;;;;20.20;6.55;;;;;;;19.13;35.71;99434.22;4857869;29;20109;-81
2022/04/10 08:22:36;;;;;;;19.45;5.63;;;;;;;19.27;36.21;99429.09;4886822;29;20572;-81
2022/04/10 08:25:04;;;;;;;17.52;5.97;;;;;;;19.46;35.06;99430.50;4873165;29;20573;-82
2022/04/10 08:27:31;;;;;;;19.45;5.80;;;;;;;19.54;34.88;99431.31;4870752;29;20125;-82
2022/04/10 08:29:57;;;;;;;27.10;5.38;;;;;;;19.56;35.15;99429.28;4889281;29;20151;-82
2022/04/10 08:32:24;;;;;;;15.13;5.20;;;;;;;19.60;34.54;99433.31;4874037;29;20043;-81
2022/04/10 08:34:50;;;;;;;18.67;5.90;;;;;;;19.73;34.56;99431.91;4874258;29;20045;-81
2022/04/10 08:37:16;;;;;;;25.10;5.40;;;;;;;19.79;34.11;99429.31;4889156;29;20492;-81
2022/04/10 08:39:42;;;;;;;18.20;3.92;;;;;;;19.63;32.83;99423.97;4887079;29;20049;-80
2022/04/10 08:42:08;;;;;;;15.13;4.95;;;;;;;19.53;33.69;99426.91;4832581;29;20121;-81
2022/04/10 08:44:35;;;;;;;13.38;4.22;;;;;;;19.40;33.48;99434.75;4862331;29;20412;-82
2022/04/10 08:47:02;;;;;;;23.23;4.22;;;;;;;19.21;33.79;99441.44;4869931;29;20119;-80
2022/04/10 08:49:31;;;;;;;14.63;3.60;;;;;;;19.10;34.05;99447.25;4873062;29;20052;-80
2022/04/10 08:51:58;;;;;;;11.40;3.60;;;;;;;19.02;34.16;99441.88;4843183;29;20405;-81
2022/04/10 08:54:26;;;;;;;16.30;4.53;;;;;;;18.95;33.96;99441.72;4873871;29;20143;-81
2022/04/10 08:56:53;;;;;;;18.13;4.57;;;;;;;18.58;33.81;99443.16;4887368;29;20049;-81
2022/04/10 08:59:21;;;;;;;14.52;4.45;;;;;;;18.41;33.63;99449.59;4858763;29;20112;-81
2022/04/10 09:01:56;;;;;;;8.77;3.70;;;;;;;18.29;33.68;99448.25;4873143;29;20037;-83
2022/04/10 09:04:23;;;;;;;15.57;3.63;;;;;;;18.16;33.34;99451.44;4886452;29;20505;-82
2022/04/10 09:07:04;;;;;;;24.92;4.07;;;;;;;17.90;33.61;99446.19;4874281;29;20080;-82
2022/04/10 09:09:31;;;;;;;19.83;3.70;;;;;;;17.77;34.22;99462.06;4854713;29;20053;-83
2022/04/10 09:11:59;;;;;;;19.58;3.78;;;;;;;17.50;34.03;99447.78;4858686;29;20037;-83
2022/04/10 09:14:28;;;;;;;17.85;3.97;;;;;;;17.39;34.40;99448.09;4868450;29;20096;-82
2022/04/10 09:17:17;;;;;;;16.27;3.45;;;;;;;17.37;34.33;99444.69;4873685;29;20223;-81
2022/04/10 09:19:48;;;;;;;19.23;3.92;;;;;;;17.26;34.07;99453.09;4886538;29;20057;-83
2022/04/10 09:22:20;;;;;;;11.52;3.47;;;;;;;16.98;34.55;99456.84;4853575;29;20045;-82
2022/04/10 09:25:03;;;;;;;17.92;4.13;;;;;;;16.65;34.68;99441.44;4849488;29;20140;-81
2022/04/10 09:27:34;;;;;;;13.95;4.30;;;;;;;16.51;34.95;99459.06;4864468;29;20458;-83
2022/04/10 09:30:00;;;;;;;17.70;4.75;;;;;;;16.67;35.32;99448.38;4833967;29;20056;-83
2022/04/10 09:32:39;;;;;;;10.70;5.03;;;;;;;16.69;35.12;99448.22;4849556;29;20061;-83
2022/04/10 09:35:06;;;;;;;17.98;5.07;;;;;;;16.63;35.53;99444.31;4848640;29;20040;-81
2022/04/10 09:37:51;;;;;;;14.90;4.68;;;;;;;16.62;35.25;99447.16;4839756;29;20048;-84
2022/04/10 09:40:29;;;;;;;22.20;4.47;;;;;;;16.66;35.69;99449.41;4849781;29;20053;-82
2022/04/10 09:42:58;;;;;;;31.63;5.10;;;;;;;16.64;35.57;99437.06;4854947;29;20049;-82
2022/04/10 09:45:29;;;;;;;18.20;4.20;;;;;;;16.79;35.69;99445.44;4836880;29;20052;-84
2022/04/10 09:47:55;;;;;;;17.73;4.50;;;;;;;16.99;35.38;99447.72;4857385;29;20045;-82
2022/04/10 09:50:33;;;;;;;20.63;4.20;;;;;;;16.95;35.54;99451.75;4868649;29;20044;-84
2022/04/10 09:53:06;;;;;;;12.87;3.87;;;;;;;16.98;35.41;99456.00;4864594;29;20045;-84
2022/04/10 09:55:34;;;;;;;25.08;4.93;;;;;;;17.06;35.03;99461.44;4856920;29;20049;-84
2022/04/10 09:58:01;;;;;;;21.83;4.05;;;;;;;16.88;35.31;99455.28;4880513;29;20055;-81
2022/04/10 10:00:28;;;;;;;32.35;4.15;;;;;;;16.72;35.96;99451.44;4881145;29;20037;-83
2022/04/10 10:02:55;;;;;;;18.80;4.60;;;;;;;16.95;35.48;99462.56;4882891;29;20053;-83
2022/04/10 10:05:21;;;;;;;17.85;4.43;;;;;;;17.05;35.92;99461.63;4863459;29;20148;-83
2022/04/10 10:07:49;;;;;;;110.30;47.88;;;;;;;17.34;44.02;99458.50;4853088;29;20548;-82
2022/04/10 10:10:19;;;;;;;40.92;12.23;;;;;;;17.73;41.11;99462.34;4863647;29;20056;-82
2022/04/10 10:12:47;;;;;;;22.52;8.50;;;;;;;17.84;38.42;99457.69;4880398;29;20055;-84
2022/04/10 10:15:13;;;;;;;75.85;34.70;;;;;;;17.97;38.81;99468.84;4848091;29;20076;-83
2022/04/10 10:17:39;;;;;;;20.00;4.28;;;;;;;18.08;36.07;99473.94;4878538;29;20144;-82
2022/04/10 10:20:06;;;;;;;24.30;4.82;;;;;;;17.99;35.16;99474.94;4879618;29;20052;-80
2022/04/10 10:22:32;;;;;;;20.65;5.22;;;;;;;17.85;35.00;99470.19;4862178;29;20074;-81
2022/04/10 10:25:07;;;;;;;28.27;4.85;;;;;;;17.86;35.65;99480.81;4847805;29;20488;-81
2022/04/10 10:27:53;;;;;;;23.95;4.55;;;;;;;17.81;35.25;99479.66;4880289;29;20453;-81
2022/04/10 10:30:52;;;;;;;25.17;5.30;;;;;;;17.66;35.01;99472.13;4847623;29;20061;-81
2022/04/10 10:33:22;;;;;;;13.27;5.00;;;;;;;17.58;35.19;99491.03;4847969;29;20549;-80
2022/04/10 10:35:56;;;;;;;17.63;5.60;;;;;;;17.46;35.38;99492.38;4847703;29;20140;-81
2022/04/10 10:38:27;;;;;;;23.55;6.13;;;;;;;17.51;35.49;99490.00;4832429;29;20077;-81
2022/04/10 10:41:09;;;;;;;20.83;5.32;;;;;;;17.41;35.45;99494.69;4862934;29;20128;-82
2022/04/10 10:43:35;;;;;;;26.17;6.03;;;;;;;17.41;35.74;99495.56;4863137;29;20045;-81
2022/04/10 10:46:01;;;;;;;42.05;8.27;;;;;;;17.62;35.38;99503.22;4847406;29;20056;-82
2022/04/10 10:48:37;;;;;;;75.05;7.93;;;;;;;17.88;35.27;99502.31;4862718;29;20592;-81
2022/04/10 10:51:09;;;;;;;22.58;5.43;;;;;;;18.05;35.00;99498.59;4878357;29;20053;-81
2022/04/10 10:53:55;;;;;;;21.88;5.90;;;;;;;18.38;34.78;99494.06;4847601;29;20596;-81
2022/04/10 10:56:31;;;;;;;19.85;5.65;;;;;;;18.63;34.44;99494.06;4862651;29;20057;-82
2022/04/10 10:59:29;;;;;;;23.00;6.97;;;;;;;18.65;34.10;99494.72;4879276;29;20053;-82
2022/04/10 11:02:13;;;;;;;30.97;5.93;;;;;;;18.90;34.01;99487.44;4843137;29;20071;-80
2022/04/10 11:04:52;;;;;;;26.52;6.20;;;;;;;18.78;33.36;99488.84;4877916;29;20041;-80
2022/04/10 11:07:18;;;;;;;25.48;6.10;;;;;;;19.04;33.56;99492.16;4862677;29;20053;-81
2022/04/10 11:10:04;;;;;;;22.55;6.32;;;;;;;19.30;32.94;99488.38;4877955;29;20493;-82
2022/04/10 11:12:48;;;;;;;19.88;5.35;;;;;;;19.45;32.28;99481.19;4862435;29;20089;-81
2022/04/10 11:15:22;;;;;;;17.08;4.50;;;;;;;19.49;31.59;99481.66;4862829;29;20052;-81
2022/04/10 11:17:49;;;;;;;14.68;4.65;;;;;;;19.12;31.76;99478.59;4862659;29;20056;-82
2022/04/10 11:20:17;;;;;;;12.18;4.32;;;;;;;19.25;32.22;99469.06;4862514;29;20519;-85
2022/04/10 11:22:53;;;;;;;16.15;3.80;;;;;;;19.46;31.39;99463.88;4877607;29;20052;-85
2022/04/10 11:25:29;;;;;;;13.50;4.13;;;;;;;19.49;31.75;99476.25;4879680;29;20045;-83
2022/04/10 11:28:01;;;;;;;19.10;3.90;;;;;;;19.58;35.31;99467.88;4878257;29;20049;-86
2022/04/10 11:30:33;;;;;;;16.10;3.90;;;;;;;19.87;31.39;99469.13;4878100;29;20060;-85
2022/04/10 11:32:59;;;;;;;12.65;5.30;;;;;;;19.85;31.35;99476.56;4880709;29;20143;-81
2022/04/10 11:35:27;;;;;;;22.67;4.90;;;;;;;19.87;31.17;99479.97;4852867;29;20045;-79
2022/04/10 11:37:55;;;;;;;13.68;4.78;;;;;;;19.50;31.40;99467.09;4874987;29;20051;-89
2022/04/10 11:40:30;;;;;;;11.40;3.92;;;;;;;19.44;31.46;99465.91;4868640;29;20458;-83
2022/04/10 11:42:58;;;;;;;16.05;4.28;;;;;;;19.59;31.41;99471.44;4869693;29;20420;-87
2022/04/10 11:45:27;;;;;;;18.85;3.67;;;;;;;19.67;31.26;99471.44;4885212;29;20080;-83
2022/04/10 11:47:53;;;;;;;18.60;4.80;;;;;;;19.81;30.83;99477.97;4884202;29;20512;-82
2022/04/10 11:50:20;;;;;;;13.30;4.55;;;;;;;19.80;31.27;99477.13;4868228;29;20509;-80
2022/04/10 11:53:06;;;;;;;16.10;4.57;;;;;;;19.77;31.09;99472.03;4867925;29;20056;-82
2022/04/10 11:55:39;;;;;;;14.20;5.13;;;;;;;19.61;31.09;99475.66;4878716;29;20045;-80
2022/04/10 11:58:18;;;;;;;16.45;5.45;;;;;;;19.40;31.32;99486.25;4885704;29;20044;-83
2022/04/10 12:00:51;;;;;;;50.63;8.63;;;;;;;19.00;32.37;99482.69;4881913;29;20057;-84
2022/04/10 12:03:21;;;;;;;13.52;5.75;;;;;;;18.86;32.07;99484.25;4884737;29;20045;-85